sensor_id;sensor_type;location;lat;lon;timestamp;P1;durP1;ratioP1;P2;durP2;ratioP2
80381;SDS011;69692;55.820;37.490;2023-08-31T00:00:45;6.68;;;4.63;;
80381;SDS011;69692;55.820;37.490;2023-08-31T00:03:12;8.80;;;4.57;;
80381;SDS011;69692;55.820;37.490;2023-08-31T00:05:42;6.53;;;4.90;;
80381;SDS011;69692;55.820;37.490;2023-08-31T00:08:09;7.15;;;4.72;;
80381;SDS011;69692;55.820;37.490;2023-08-31T00:10:37;9.07;;;4.93;;
80381;SDS011;69692;55.820;37.490;2023-08-31T00:13:04;6.60;;;4.93;;
80381;SDS011;69692;55.820;37.490;2023-08-31T00:15:32;9.00;;;5.07;;
80381;SDS011;69692;55.820;37.490;2023-08-31T00:18:01;8.00;;;4.20;;
80381;SDS011;69692;55.820;37.490;2023-08-31T00:20:30;9.95;;;5.15;;
80381;SDS011;69692;55.820;37.490;2023-08-31T00:22:56;9.27;;;6.40;;
80381;SDS011;69692;55.820;37.490;2023-08-31T00:25:24;9.07;;;5.70;;
80381;SDS011;69692;55.820;37.490;2023-08-31T00:27:49;8.85;;;6.05;;
80381;SDS011;69692;55.820;37.490;2023-08-31T00:30:18;9.07;;;5.35;;
80381;SDS011;69692;55.820;37.490;2023-08-31T00:32:44;10.63;;;6.00;;
80381;SDS011;69692;55.820;37.490;2023-08-31T00:35:13;11.68;;;6.18;;
80381;SDS011;69692;55.820;37.490;2023-08-31T00:37:39;9.50;;;6.45;;
80381;SDS011;69692;55.820;37.490;2023-08-31T00:40:05;11.18;;;6.55;;
80381;SDS011;69692;55.820;37.490;2023-08-31T00:42:35;14.02;;;6.28;;
80381;SDS011;69692;55.820;37.490;2023-08-31T00:45:03;12.80;;;6.63;;
80381;SDS011;69692;55.820;37.490;2023-08-31T00:47:32;11.90;;;6.25;;
80381;SDS011;69692;55.820;37.490;2023-08-31T00:49:59;8.70;;;5.78;;
80381;SDS011;69692;55.820;37.490;2023-08-31T00:52:31;10.68;;;6.88;;
80381;SDS011;69692;55.820;37.490;2023-08-31T00:54:57;13.05;;;6.47;;
80381;SDS011;69692;55.820;37.490;2023-08-31T00:57:24;11.43;;;6.60;;
80381;SDS011;69692;55.820;37.490;2023-08-31T00:59:52;11.65;;;7.97;;
80381;SDS011;69692;55.820;37.490;2023-08-31T01:02:32;12.75;;;7.15;;
80381;SDS011;69692;55.820;37.490;2023-08-31T01:11:07;10.68;;;6.90;;
80381;SDS011;69692;55.820;37.490;2023-08-31T01:14:09;11.68;;;8.18;;
80381;SDS011;69692;55.820;37.490;2023-08-31T01:16:41;9.82;;;6.80;;
80381;SDS011;69692;55.820;37.490;2023-08-31T01:19:16;11.68;;;7.40;;
80381;SDS011;69692;55.820;37.490;2023-08-31T01:21:54;9.95;;;7.00;;
80381;SDS011;69692;55.820;37.490;2023-08-31T01:24:25;13.32;;;7.57;;
80381;SDS011;69692;55.820;37.490;2023-08-31T01:26:53;11.70;;;7.15;;
80381;SDS011;69692;55.820;37.490;2023-08-31T01:29:19;13.02;;;7.60;;
80381;SDS011;69692;55.820;37.490;2023-08-31T01:31:45;11.23;;;7.85;;
80381;SDS011;69692;55.820;37.490;2023-08-31T01:34:12;11.50;;;7.40;;
80381;SDS011;69692;55.820;37.490;2023-08-31T01:36:39;13.65;;;8.15;;
80381;SDS011;69692;55.820;37.490;2023-08-31T01:39:15;13.88;;;8.80;;
80381;SDS011;69692;55.820;37.490;2023-08-31T01:41:55;12.77;;;8.80;;
80381;SDS011;69692;55.820;37.490;2023-08-31T01:44:23;12.18;;;7.70;;
80381;SDS011;69692;55.820;37.490;2023-08-31T01:46:51;14.40;;;7.63;;
80381;SDS011;69692;55.820;37.490;2023-08-31T01:49:23;13.73;;;7.93;;
80381;SDS011;69692;55.820;37.490;2023-08-31T01:51:49;15.13;;;8.70;;
80381;SDS011;69692;55.820;37.490;2023-08-31T01:54:15;13.55;;;9.02;;
80381;SDS011;69692;55.820;37.490;2023-08-31T01:56:41;17.75;;;8.75;;
80381;SDS011;69692;55.820;37.490;2023-08-31T01:59:07;14.43;;;8.55;;
80381;SDS011;69692;55.820;37.490;2023-08-31T02:01:33;15.52;;;8.63;;
80381;SDS011;69692;55.820;37.490;2023-08-31T02:03:59;13.73;;;9.20;;
80381;SDS011;69692;55.820;37.490;2023-08-31T02:06:27;14.60;;;9.48;;
80381;SDS011;69692;55.820;37.490;2023-08-31T02:08:53;14.38;;;8.68;;
80381;SDS011;69692;55.820;37.490;2023-08-31T02:11:18;17.80;;;9.02;;
80381;SDS011;69692;55.820;37.490;2023-08-31T02:13:44;14.52;;;9.30;;
80381;SDS011;69692;55.820;37.490;2023-08-31T02:16:10;15.57;;;8.18;;
80381;SDS011;69692;55.820;37.490;2023-08-31T02:18:37;14.45;;;8.93;;
80381;SDS011;69692;55.820;37.490;2023-08-31T02:21:03;13.73;;;8.77;;
80381;SDS011;69692;55.820;37.490;2023-08-31T02:23:30;12.70;;;8.52;;
80381;SDS011;69692;55.820;37.490;2023-08-31T02:25:56;11.95;;;8.10;;
80381;SDS011;69692;55.820;37.490;2023-08-31T02:28:22;13.85;;;8.32;;
80381;SDS011;69692;55.820;37.490;2023-08-31T02:30:56;13.20;;;8.07;;
80381;SDS011;69692;55.820;37.490;2023-08-31T02:33:23;12.48;;;7.28;;
80381;SDS011;69692;55.820;37.490;2023-08-31T02:35:49;15.82;;;8.80;;
80381;SDS011;69692;55.820;37.490;2023-08-31T02:38:15;13.20;;;8.45;;
80381;SDS011;69692;55.820;37.490;2023-08-31T02:40:41;11.82;;;8.00;;
80381;SDS011;69692;55.820;37.490;2023-08-31T02:43:07;14.88;;;9.15;;
80381;SDS011;69692;55.820;37.490;2023-08-31T02:45:34;16.98;;;8.50;;
80381;SDS011;69692;55.820;37.490;2023-08-31T02:48:00;28.08;;;8.98;;
80381;SDS011;69692;55.820;37.490;2023-08-31T02:50:26;15.27;;;9.20;;
80381;SDS011;69692;55.820;37.490;2023-08-31T02:52:51;15.50;;;9.48;;
80381;SDS011;69692;55.820;37.490;2023-08-31T02:55:17;12.63;;;8.80;;
80381;SDS011;69692;55.820;37.490;2023-08-31T02:57:44;18.98;;;10.65;;
80381;SDS011;69692;55.820;37.490;2023-08-31T03:00:10;15.57;;;9.70;;
80381;SDS011;69692;55.820;37.490;2023-08-31T03:02:39;15.57;;;9.35;;
80381;SDS011;69692;55.820;37.490;2023-08-31T03:05:05;14.95;;;9.57;;
80381;SDS011;69692;55.820;37.490;2023-08-31T03:07:32;13.77;;;9.38;;
80381;SDS011;69692;55.820;37.490;2023-08-31T03:09:58;23.35;;;9.73;;
80381;SDS011;69692;55.820;37.490;2023-08-31T03:12:23;13.98;;;8.55;;
80381;SDS011;69692;55.820;37.490;2023-08-31T03:14:49;13.20;;;8.85;;
80381;SDS011;69692;55.820;37.490;2023-08-31T03:17:15;14.18;;;8.77;;
80381;SDS011;69692;55.820;37.490;2023-08-31T03:19:41;12.88;;;8.15;;
80381;SDS011;69692;55.820;37.490;2023-08-31T03:22:06;17.65;;;9.30;;
80381;SDS011;69692;55.820;37.490;2023-08-31T03:24:33;13.13;;;9.43;;
80381;SDS011;69692;55.820;37.490;2023-08-31T03:26:58;13.20;;;8.82;;
80381;SDS011;69692;55.820;37.490;2023-08-31T03:29:25;17.73;;;8.95;;
80381;SDS011;69692;55.820;37.490;2023-08-31T03:31:51;17.38;;;9.10;;
80381;SDS011;69692;55.820;37.490;2023-08-31T03:34:17;15.50;;;9.10;;
80381;SDS011;69692;55.820;37.490;2023-08-31T03:36:43;16.50;;;10.25;;
80381;SDS011;69692;55.820;37.490;2023-08-31T03:39:08;14.75;;;9.50;;
80381;SDS011;69692;55.820;37.490;2023-08-31T03:41:35;12.40;;;8.43;;
80381;SDS011;69692;55.820;37.490;2023-08-31T03:44:01;15.02;;;8.48;;
80381;SDS011;69692;55.820;37.490;2023-08-31T03:46:27;16.90;;;8.98;;
80381;SDS011;69692;55.820;37.490;2023-08-31T03:48:53;14.05;;;8.82;;
80381;SDS011;69692;55.820;37.490;2023-08-31T03:51:18;14.52;;;8.88;;
80381;SDS011;69692;55.820;37.490;2023-08-31T03:53:44;17.55;;;10.32;;
80381;SDS011;69692;55.820;37.490;2023-08-31T03:56:10;15.35;;;9.38;;
80381;SDS011;69692;55.820;37.490;2023-08-31T03:58:36;16.15;;;10.23;;
80381;SDS011;69692;55.820;37.490;2023-08-31T04:01:02;14.75;;;9.85;;
80381;SDS011;69692;55.820;37.490;2023-08-31T04:03:29;15.60;;;9.82;;
80381;SDS011;69692;55.820;37.490;2023-08-31T04:05:55;16.98;;;9.52;;
80381;SDS011;69692;55.820;37.490;2023-08-31T04:08:21;14.85;;;9.35;;
80381;SDS011;69692;55.820;37.490;2023-08-31T04:10:47;14.10;;;9.48;;
80381;SDS011;69692;55.820;37.490;2023-08-31T04:13:13;15.90;;;9.55;;
80381;SDS011;69692;55.820;37.490;2023-08-31T04:15:39;16.73;;;9.32;;
80381;SDS011;69692;55.820;37.490;2023-08-31T04:18:04;15.68;;;9.27;;
80381;SDS011;69692;55.820;37.490;2023-08-31T04:20:30;15.10;;;10.02;;
80381;SDS011;69692;55.820;37.490;2023-08-31T04:22:56;15.85;;;8.95;;
80381;SDS011;69692;55.820;37.490;2023-08-31T04:25:21;16.30;;;10.45;;
80381;SDS011;69692;55.820;37.490;2023-08-31T04:27:47;15.40;;;9.73;;
80381;SDS011;69692;55.820;37.490;2023-08-31T04:30:14;16.25;;;11.23;;
80381;SDS011;69692;55.820;37.490;2023-08-31T04:32:40;14.68;;;9.15;;
80381;SDS011;69692;55.820;37.490;2023-08-31T04:35:06;14.20;;;9.52;;
80381;SDS011;69692;55.820;37.490;2023-08-31T04:37:32;16.15;;;9.77;;
80381;SDS011;69692;55.820;37.490;2023-08-31T04:39:58;13.77;;;10.18;;
80381;SDS011;69692;55.820;37.490;2023-08-31T04:42:24;18.45;;;10.52;;
80381;SDS011;69692;55.820;37.490;2023-08-31T04:44:50;17.33;;;10.25;;
80381;SDS011;69692;55.820;37.490;2023-08-31T04:47:15;16.25;;;9.52;;
80381;SDS011;69692;55.820;37.490;2023-08-31T04:49:41;16.58;;;10.45;;
80381;SDS011;69692;55.820;37.490;2023-08-31T04:52:07;19.77;;;10.45;;
80381;SDS011;69692;55.820;37.490;2023-08-31T04:54:33;19.02;;;10.40;;
80381;SDS011;69692;55.820;37.490;2023-08-31T04:56:59;17.40;;;9.90;;
80381;SDS011;69692;55.820;37.490;2023-08-31T04:59:25;17.75;;;10.35;;
80381;SDS011;69692;55.820;37.490;2023-08-31T05:01:50;16.98;;;9.90;;
80381;SDS011;69692;55.820;37.490;2023-08-31T05:04:16;20.83;;;10.23;;
80381;SDS011;69692;55.820;37.490;2023-08-31T05:06:42;15.70;;;10.73;;
80381;SDS011;69692;55.820;37.490;2023-08-31T05:09:07;17.55;;;10.18;;
80381;SDS011;69692;55.820;37.490;2023-08-31T05:11:35;16.00;;;10.70;;
80381;SDS011;69692;55.820;37.490;2023-08-31T05:14:00;15.90;;;11.45;;
80381;SDS011;69692;55.820;37.490;2023-08-31T05:16:26;22.08;;;10.95;;
80381;SDS011;69692;55.820;37.490;2023-08-31T05:18:52;18.65;;;11.45;;
80381;SDS011;69692;55.820;37.490;2023-08-31T05:21:17;21.98;;;12.07;;
80381;SDS011;69692;55.820;37.490;2023-08-31T05:23:43;15.93;;;11.00;;
80381;SDS011;69692;55.820;37.490;2023-08-31T05:26:08;17.65;;;11.48;;
80381;SDS011;69692;55.820;37.490;2023-08-31T05:28:34;17.17;;;10.65;;
80381;SDS011;69692;55.820;37.490;2023-08-31T05:31:01;21.38;;;11.88;;
80381;SDS011;69692;55.820;37.490;2023-08-31T05:33:28;15.00;;;10.75;;
80381;SDS011;69692;55.820;37.490;2023-08-31T05:38:25;17.40;;;11.20;;
80381;SDS011;69692;55.820;37.490;2023-08-31T05:40:51;19.05;;;11.63;;
80381;SDS011;69692;55.820;37.490;2023-08-31T05:43:16;17.17;;;11.93;;
80381;SDS011;69692;55.820;37.490;2023-08-31T05:45:42;17.35;;;11.15;;
80381;SDS011;69692;55.820;37.490;2023-08-31T05:48:08;15.55;;;10.38;;
80381;SDS011;69692;55.820;37.490;2023-08-31T05:50:34;17.40;;;10.75;;
80381;SDS011;69692;55.820;37.490;2023-08-31T05:53:02;15.55;;;9.48;;
80381;SDS011;69692;55.820;37.490;2023-08-31T05:55:28;16.70;;;10.80;;
80381;SDS011;69692;55.820;37.490;2023-08-31T05:57:54;15.68;;;10.68;;
80381;SDS011;69692;55.820;37.490;2023-08-31T06:00:20;14.90;;;10.43;;
80381;SDS011;69692;55.820;37.490;2023-08-31T06:02:46;15.40;;;9.88;;
80381;SDS011;69692;55.820;37.490;2023-08-31T06:05:11;16.25;;;10.35;;
80381;SDS011;69692;55.820;37.490;2023-08-31T06:07:38;15.77;;;9.75;;
80381;SDS011;69692;55.820;37.490;2023-08-31T06:10:05;15.73;;;10.52;;
80381;SDS011;69692;55.820;37.490;2023-08-31T06:12:31;15.20;;;9.80;;
80381;SDS011;69692;55.820;37.490;2023-08-31T06:14:57;16.00;;;10.70;;
80381;SDS011;69692;55.820;37.490;2023-08-31T06:17:23;17.73;;;11.30;;
80381;SDS011;69692;55.820;37.490;2023-08-31T06:19:48;19.40;;;11.23;;
80381;SDS011;69692;55.820;37.490;2023-08-31T06:22:14;16.17;;;10.00;;
80381;SDS011;69692;55.820;37.490;2023-08-31T06:24:40;18.55;;;10.55;;
80381;SDS011;69692;55.820;37.490;2023-08-31T06:27:06;16.83;;;9.50;;
80381;SDS011;69692;55.820;37.490;2023-08-31T06:29:31;16.48;;;9.93;;
80381;SDS011;69692;55.820;37.490;2023-08-31T06:31:57;15.48;;;8.75;;
80381;SDS011;69692;55.820;37.490;2023-08-31T06:34:23;18.60;;;9.23;;
80381;SDS011;69692;55.820;37.490;2023-08-31T06:36:48;11.93;;;8.60;;
80381;SDS011;69692;55.820;37.490;2023-08-31T06:39:14;13.57;;;8.68;;
80381;SDS011;69692;55.820;37.490;2023-08-31T06:41:41;21.02;;;9.80;;
80381;SDS011;69692;55.820;37.490;2023-08-31T06:44:06;12.75;;;8.00;;
80381;SDS011;69692;55.820;37.490;2023-08-31T06:46:32;11.50;;;7.70;;
80381;SDS011;69692;55.820;37.490;2023-08-31T06:49:06;14.27;;;7.90;;
80381;SDS011;69692;55.820;37.490;2023-08-31T06:51:32;13.02;;;7.82;;
80381;SDS011;69692;55.820;37.490;2023-08-31T06:53:58;14.70;;;8.35;;
80381;SDS011;69692;55.820;37.490;2023-08-31T06:56:31;12.90;;;7.82;;
80381;SDS011;69692;55.820;37.490;2023-08-31T06:58:58;13.75;;;8.52;;
80381;SDS011;69692;55.820;37.490;2023-08-31T07:01:24;18.15;;;9.73;;
80381;SDS011;69692;55.820;37.490;2023-08-31T07:03:49;17.55;;;9.25;;
80381;SDS011;69692;55.820;37.490;2023-08-31T07:06:16;16.90;;;8.23;;
80381;SDS011;69692;55.820;37.490;2023-08-31T07:08:42;24.48;;;9.07;;
80381;SDS011;69692;55.820;37.490;2023-08-31T07:11:10;11.75;;;8.02;;
80381;SDS011;69692;55.820;37.490;2023-08-31T07:13:36;15.05;;;8.13;;
80381;SDS011;69692;55.820;37.490;2023-08-31T07:16:02;13.65;;;8.95;;
80381;SDS011;69692;55.820;37.490;2023-08-31T07:18:28;18.60;;;8.23;;
80381;SDS011;69692;55.820;37.490;2023-08-31T07:20:54;14.15;;;8.75;;
80381;SDS011;69692;55.820;37.490;2023-08-31T07:23:19;15.45;;;8.45;;
80381;SDS011;69692;55.820;37.490;2023-08-31T07:25:45;13.38;;;8.27;;
80381;SDS011;69692;55.820;37.490;2023-08-31T07:28:12;14.75;;;9.15;;
80381;SDS011;69692;55.820;37.490;2023-08-31T07:30:37;13.55;;;8.35;;
80381;SDS011;69692;55.820;37.490;2023-08-31T07:33:03;15.10;;;8.93;;
80381;SDS011;69692;55.820;37.490;2023-08-31T07:35:30;19.73;;;9.30;;
80381;SDS011;69692;55.820;37.490;2023-08-31T07:37:55;15.57;;;7.72;;
80381;SDS011;69692;55.820;37.490;2023-08-31T07:40:21;18.70;;;9.55;;
80381;SDS011;69692;55.820;37.490;2023-08-31T07:42:47;14.30;;;8.85;;
80381;SDS011;69692;55.820;37.490;2023-08-31T07:45:12;16.00;;;8.82;;
80381;SDS011;69692;55.820;37.490;2023-08-31T07:47:38;13.82;;;8.77;;
80381;SDS011;69692;55.820;37.490;2023-08-31T07:50:04;19.95;;;8.82;;
80381;SDS011;69692;55.820;37.490;2023-08-31T07:52:30;16.42;;;9.18;;
80381;SDS011;69692;55.820;37.490;2023-08-31T07:54:56;13.35;;;7.88;;
80381;SDS011;69692;55.820;37.490;2023-08-31T07:57:21;14.15;;;8.77;;
80381;SDS011;69692;55.820;37.490;2023-08-31T07:59:47;15.32;;;8.18;;
80381;SDS011;69692;55.820;37.490;2023-08-31T08:02:13;15.38;;;8.07;;
80381;SDS011;69692;55.820;37.490;2023-08-31T08:04:40;14.00;;;8.02;;
80381;SDS011;69692;55.820;37.490;2023-08-31T08:07:06;15.55;;;7.82;;
80381;SDS011;69692;55.820;37.490;2023-08-31T08:09:32;13.00;;;7.78;;
80381;SDS011;69692;55.820;37.490;2023-08-31T08:11:57;11.38;;;7.90;;
80381;SDS011;69692;55.820;37.490;2023-08-31T08:14:23;13.52;;;7.60;;
80381;SDS011;69692;55.820;37.490;2023-08-31T08:16:49;14.15;;;7.57;;
80381;SDS011;69692;55.820;37.490;2023-08-31T08:19:20;16.95;;;7.40;;
80381;SDS011;69692;55.820;37.490;2023-08-31T08:21:52;12.25;;;6.63;;
80381;SDS011;69692;55.820;37.490;2023-08-31T08:24:18;11.77;;;6.75;;
80381;SDS011;69692;55.820;37.490;2023-08-31T08:26:43;12.35;;;6.70;;
80381;SDS011;69692;55.820;37.490;2023-08-31T08:29:09;13.05;;;6.88;;
80381;SDS011;69692;55.820;37.490;2023-08-31T08:31:35;13.70;;;7.95;;
80381;SDS011;69692;55.820;37.490;2023-08-31T08:34:01;17.52;;;7.40;;
80381;SDS011;69692;55.820;37.490;2023-08-31T08:36:26;15.95;;;8.40;;
80381;SDS011;69692;55.820;37.490;2023-08-31T08:38:52;17.05;;;7.13;;
80381;SDS011;69692;55.820;37.490;2023-08-31T08:41:19;15.27;;;7.78;;
80381;SDS011;69692;55.820;37.490;2023-08-31T08:43:49;16.45;;;7.30;;
80381;SDS011;69692;55.820;37.490;2023-08-31T08:46:16;15.75;;;7.43;;
80381;SDS011;69692;55.820;37.490;2023-08-31T08:48:43;11.77;;;7.28;;
80381;SDS011;69692;55.820;37.490;2023-08-31T08:51:10;12.18;;;6.38;;
80381;SDS011;69692;55.820;37.490;2023-08-31T08:53:36;12.85;;;6.57;;
80381;SDS011;69692;55.820;37.490;2023-08-31T08:56:05;13.27;;;7.22;;
80381;SDS011;69692;55.820;37.490;2023-08-31T08:58:31;13.60;;;7.55;;
80381;SDS011;69692;55.820;37.490;2023-08-31T09:00:57;17.63;;;6.35;;
80381;SDS011;69692;55.820;37.490;2023-08-31T09:03:23;13.52;;;8.07;;
80381;SDS011;69692;55.820;37.490;2023-08-31T09:05:50;14.68;;;6.45;;
80381;SDS011;69692;55.820;37.490;2023-08-31T09:08:26;9.57;;;6.40;;
80381;SDS011;69692;55.820;37.490;2023-08-31T09:10:53;11.45;;;6.57;;
80381;SDS011;69692;55.820;37.490;2023-08-31T09:13:25;11.82;;;6.75;;
80381;SDS011;69692;55.820;37.490;2023-08-31T09:15:52;18.48;;;7.32;;
80381;SDS011;69692;55.820;37.490;2023-08-31T09:18:30;10.77;;;6.50;;
80381;SDS011;69692;55.820;37.490;2023-08-31T09:20:58;16.42;;;7.45;;
80381;SDS011;69692;55.820;37.490;2023-08-31T09:23:26;12.60;;;6.38;;
80381;SDS011;69692;55.820;37.490;2023-08-31T09:25:56;14.07;;;7.05;;
80381;SDS011;69692;55.820;37.490;2023-08-31T09:28:22;11.20;;;6.50;;
80381;SDS011;69692;55.820;37.490;2023-08-31T09:30:52;8.93;;;5.93;;
80381;SDS011;69692;55.820;37.490;2023-08-31T09:33:27;10.85;;;5.47;;
80381;SDS011;69692;55.820;37.490;2023-08-31T09:35:59;9.48;;;6.03;;
80381;SDS011;69692;55.820;37.490;2023-08-31T09:38:27;8.27;;;5.43;;
80381;SDS011;69692;55.820;37.490;2023-08-31T09:41:03;11.93;;;5.45;;
80381;SDS011;69692;55.820;37.490;2023-08-31T09:43:32;11.43;;;5.90;;
80381;SDS011;69692;55.820;37.490;2023-08-31T09:45:59;8.82;;;6.18;;
80381;SDS011;69692;55.820;37.490;2023-08-31T09:48:26;9.27;;;5.72;;
80381;SDS011;69692;55.820;37.490;2023-08-31T09:50:52;8.07;;;6.07;;
80381;SDS011;69692;55.820;37.490;2023-08-31T09:53:19;9.57;;;5.97;;
80381;SDS011;69692;55.820;37.490;2023-08-31T09:55:46;8.90;;;6.38;;
80381;SDS011;69692;55.820;37.490;2023-08-31T09:58:17;9.20;;;5.78;;
80381;SDS011;69692;55.820;37.490;2023-08-31T10:00:46;9.38;;;5.82;;
80381;SDS011;69692;55.820;37.490;2023-08-31T10:03:15;13.07;;;7.00;;
80381;SDS011;69692;55.820;37.490;2023-08-31T10:05:45;10.45;;;6.30;;
80381;SDS011;69692;55.820;37.490;2023-08-31T10:08:12;12.27;;;6.03;;
80381;SDS011;69692;55.820;37.490;2023-08-31T10:10:39;11.88;;;6.03;;
80381;SDS011;69692;55.820;37.490;2023-08-31T10:13:06;10.95;;;6.07;;
80381;SDS011;69692;55.820;37.490;2023-08-31T10:15:34;17.23;;;6.65;;
80381;SDS011;69692;55.820;37.490;2023-08-31T10:18:05;10.07;;;5.85;;
80381;SDS011;69692;55.820;37.490;2023-08-31T10:20:32;9.57;;;6.18;;
80381;SDS011;69692;55.820;37.490;2023-08-31T10:23:02;14.50;;;6.25;;
80381;SDS011;69692;55.820;37.490;2023-08-31T10:28:16;11.13;;;6.53;;
80381;SDS011;69692;55.820;37.490;2023-08-31T10:33:30;14.70;;;5.68;;
80381;SDS011;69692;55.820;37.490;2023-08-31T10:36:00;12.55;;;5.95;;
80381;SDS011;69692;55.820;37.490;2023-08-31T10:38:30;9.65;;;5.60;;
80381;SDS011;69692;55.820;37.490;2023-08-31T10:43:44;10.25;;;5.28;;
80381;SDS011;69692;55.820;37.490;2023-08-31T10:48:55;11.13;;;6.07;;
80381;SDS011;69692;55.820;37.490;2023-08-31T10:51:24;14.20;;;5.60;;
80381;SDS011;69692;55.820;37.490;2023-08-31T10:53:50;10.13;;;6.10;;
80381;SDS011;69692;55.820;37.490;2023-08-31T10:56:17;8.82;;;5.30;;
80381;SDS011;69692;55.820;37.490;2023-08-31T10:58:54;11.32;;;6.25;;
80381;SDS011;69692;55.820;37.490;2023-08-31T11:04:29;11.90;;;6.22;;
80381;SDS011;69692;55.820;37.490;2023-08-31T11:09:41;10.73;;;5.97;;
80381;SDS011;69692;55.820;37.490;2023-08-31T11:12:07;8.60;;;5.03;;
80381;SDS011;69692;55.820;37.490;2023-08-31T11:14:34;11.55;;;6.28;;
80381;SDS011;69692;55.820;37.490;2023-08-31T11:17:00;12.23;;;6.22;;
80381;SDS011;69692;55.820;37.490;2023-08-31T11:19:27;11.88;;;5.20;;
80381;SDS011;69692;55.820;37.490;2023-08-31T11:21:54;11.07;;;6.10;;
80381;SDS011;69692;55.820;37.490;2023-08-31T11:24:20;15.05;;;6.47;;
80381;SDS011;69692;55.820;37.490;2023-08-31T11:26:49;8.98;;;5.80;;
80381;SDS011;69692;55.820;37.490;2023-08-31T11:29:16;9.38;;;5.40;;
80381;SDS011;69692;55.820;37.490;2023-08-31T11:31:42;9.50;;;5.85;;
80381;SDS011;69692;55.820;37.490;2023-08-31T11:34:15;8.18;;;5.38;;
80381;SDS011;69692;55.820;37.490;2023-08-31T11:36:42;15.10;;;4.85;;
80381;SDS011;69692;55.820;37.490;2023-08-31T11:39:09;10.13;;;5.70;;
80381;SDS011;69692;55.820;37.490;2023-08-31T11:41:36;12.32;;;5.65;;
80381;SDS011;69692;55.820;37.490;2023-08-31T11:44:11;13.93;;;5.47;;
80381;SDS011;69692;55.820;37.490;2023-08-31T11:46:39;10.63;;;5.22;;
80381;SDS011;69692;55.820;37.490;2023-08-31T11:49:07;10.10;;;6.00;;
80381;SDS011;69692;55.820;37.490;2023-08-31T11:51:34;9.95;;;5.28;;
80381;SDS011;69692;55.820;37.490;2023-08-31T11:54:01;12.73;;;5.60;;
80381;SDS011;69692;55.820;37.490;2023-08-31T11:56:40;11.98;;;5.20;;
80381;SDS011;69692;55.820;37.490;2023-08-31T11:59:09;9.90;;;5.47;;
80381;SDS011;69692;55.820;37.490;2023-08-31T12:01:38;9.00;;;5.43;;
80381;SDS011;69692;55.820;37.490;2023-08-31T12:04:12;9.70;;;5.97;;
80381;SDS011;69692;55.820;37.490;2023-08-31T12:06:39;9.82;;;5.50;;
80381;SDS011;69692;55.820;37.490;2023-08-31T12:09:06;8.07;;;5.40;;
80381;SDS011;69692;55.820;37.490;2023-08-31T12:11:33;12.05;;;5.80;;
80381;SDS011;69692;55.820;37.490;2023-08-31T12:14:00;12.82;;;5.40;;
80381;SDS011;69692;55.820;37.490;2023-08-31T12:16:36;10.57;;;5.68;;
80381;SDS011;69692;55.820;37.490;2023-08-31T12:19:02;16.52;;;6.03;;
80381;SDS011;69692;55.820;37.490;2023-08-31T12:21:31;10.23;;;5.50;;
80381;SDS011;69692;55.820;37.490;2023-08-31T12:24:00;9.77;;;5.32;;
80381;SDS011;69692;55.820;37.490;2023-08-31T12:26:26;12.73;;;5.70;;
80381;SDS011;69692;55.820;37.490;2023-08-31T12:28:52;8.65;;;5.68;;
80381;SDS011;69692;55.820;37.490;2023-08-31T12:31:18;12.80;;;5.90;;
80381;SDS011;69692;55.820;37.490;2023-08-31T12:33:44;9.25;;;5.30;;
80381;SDS011;69692;55.820;37.490;2023-08-31T12:36:10;11.27;;;5.63;;
80381;SDS011;69692;55.820;37.490;2023-08-31T12:38:36;11.10;;;5.10;;
80381;SDS011;69692;55.820;37.490;2023-08-31T12:41:01;8.63;;;5.50;;
80381;SDS011;69692;55.820;37.490;2023-08-31T12:43:28;13.30;;;5.35;;
80381;SDS011;69692;55.820;37.490;2023-08-31T12:45:54;15.68;;;5.82;;
80381;SDS011;69692;55.820;37.490;2023-08-31T12:48:21;10.20;;;5.68;;
80381;SDS011;69692;55.820;37.490;2023-08-31T12:50:47;10.57;;;5.43;;
80381;SDS011;69692;55.820;37.490;2023-08-31T12:53:16;8.48;;;5.15;;
80381;SDS011;69692;55.820;37.490;2023-08-31T12:55:42;13.18;;;5.22;;
80381;SDS011;69692;55.820;37.490;2023-08-31T12:58:08;10.63;;;5.75;;
80381;SDS011;69692;55.820;37.490;2023-08-31T13:00:34;11.55;;;5.35;;
80381;SDS011;69692;55.820;37.490;2023-08-31T13:03:00;10.15;;;5.50;;
80381;SDS011;69692;55.820;37.490;2023-08-31T13:05:27;9.65;;;5.43;;
80381;SDS011;69692;55.820;37.490;2023-08-31T13:07:56;10.93;;;5.82;;
80381;SDS011;69692;55.820;37.490;2023-08-31T13:10:22;10.63;;;5.80;;
80381;SDS011;69692;55.820;37.490;2023-08-31T13:12:48;12.02;;;6.10;;
80381;SDS011;69692;55.820;37.490;2023-08-31T13:15:14;13.43;;;5.90;;
80381;SDS011;69692;55.820;37.490;2023-08-31T13:17:40;8.30;;;5.32;;
80381;SDS011;69692;55.820;37.490;2023-08-31T13:20:06;9.90;;;5.38;;
80381;SDS011;69692;55.820;37.490;2023-08-31T13:22:33;12.20;;;5.28;;
80381;SDS011;69692;55.820;37.490;2023-08-31T13:24:59;10.52;;;6.07;;
80381;SDS011;69692;55.820;37.490;2023-08-31T13:27:25;10.18;;;5.22;;
80381;SDS011;69692;55.820;37.490;2023-08-31T13:29:51;10.73;;;5.22;;
80381;SDS011;69692;55.820;37.490;2023-08-31T13:32:17;10.25;;;5.13;;
80381;SDS011;69692;55.820;37.490;2023-08-31T13:34:43;9.43;;;4.93;;
80381;SDS011;69692;55.820;37.490;2023-08-31T13:37:09;11.45;;;5.15;;
80381;SDS011;69692;55.820;37.490;2023-08-31T13:39:35;16.77;;;5.50;;
80381;SDS011;69692;55.820;37.490;2023-08-31T13:42:02;9.07;;;5.00;;
80381;SDS011;69692;55.820;37.490;2023-08-31T13:44:29;9.93;;;5.22;;
80381;SDS011;69692;55.820;37.490;2023-08-31T13:46:57;10.63;;;5.72;;
80381;SDS011;69692;55.820;37.490;2023-08-31T13:49:23;11.13;;;5.85;;
80381;SDS011;69692;55.820;37.490;2023-08-31T13:51:48;16.95;;;5.13;;
80381;SDS011;69692;55.820;37.490;2023-08-31T13:54:15;12.55;;;5.13;;
80381;SDS011;69692;55.820;37.490;2023-08-31T13:56:40;8.75;;;4.47;;
80381;SDS011;69692;55.820;37.490;2023-08-31T13:59:06;10.05;;;5.00;;
80381;SDS011;69692;55.820;37.490;2023-08-31T14:01:32;13.15;;;5.47;;
80381;SDS011;69692;55.820;37.490;2023-08-31T14:03:58;11.88;;;5.45;;
80381;SDS011;69692;55.820;37.490;2023-08-31T14:06:23;11.70;;;6.18;;
80381;SDS011;69692;55.820;37.490;2023-08-31T14:08:49;10.13;;;5.15;;
80381;SDS011;69692;55.820;37.490;2023-08-31T14:11:15;9.80;;;5.57;;
80381;SDS011;69692;55.820;37.490;2023-08-31T14:13:42;10.10;;;5.18;;
80381;SDS011;69692;55.820;37.490;2023-08-31T14:16:09;15.73;;;5.32;;
80381;SDS011;69692;55.820;37.490;2023-08-31T14:18:34;13.70;;;5.80;;
80381;SDS011;69692;55.820;37.490;2023-08-31T14:21:00;13.80;;;5.20;;
80381;SDS011;69692;55.820;37.490;2023-08-31T14:23:26;10.27;;;5.07;;
80381;SDS011;69692;55.820;37.490;2023-08-31T14:25:52;10.23;;;5.03;;
80381;SDS011;69692;55.820;37.490;2023-08-31T14:28:18;11.90;;;5.60;;
80381;SDS011;69692;55.820;37.490;2023-08-31T14:30:44;10.65;;;4.95;;
80381;SDS011;69692;55.820;37.490;2023-08-31T14:33:10;9.65;;;5.18;;
80381;SDS011;69692;55.820;37.490;2023-08-31T14:35:36;13.35;;;5.95;;
80381;SDS011;69692;55.820;37.490;2023-08-31T14:38:03;12.88;;;5.43;;
80381;SDS011;69692;55.820;37.490;2023-08-31T14:40:28;10.82;;;5.38;;
80381;SDS011;69692;55.820;37.490;2023-08-31T14:42:54;10.82;;;5.38;;
80381;SDS011;69692;55.820;37.490;2023-08-31T14:45:20;11.68;;;5.28;;